sensor_id;sensor_type;location;lat;lon;timestamp;P1;durP1;ratioP1;P2;durP2;ratioP2
77384;SDS011;66443;49.122;8.346;2023-06-22T00:01:50;6.20;;;5.15;;
77384;SDS011;66443;49.122;8.346;2023-06-22T00:04:15;5.40;;;4.88;;
77384;SDS011;66443;49.122;8.346;2023-06-22T00:06:40;5.97;;;5.35;;
77384;SDS011;66443;49.122;8.346;2023-06-22T00:09:06;6.22;;;5.63;;
77384;SDS011;66443;49.122;8.346;2023-06-22T00:11:31;6.45;;;5.95;;
77384;SDS011;66443;49.122;8.346;2023-06-22T00:13:58;6.50;;;5.80;;
77384;SDS011;66443;49.122;8.346;2023-06-22T00:16:23;7.03;;;6.45;;
77384;SDS011;66443;49.122;8.346;2023-06-22T00:18:48;6.88;;;6.28;;
77384;SDS011;66443;49.122;8.346;2023-06-22T00:21:14;6.30;;;5.80;;
77384;SDS011;66443;49.122;8.346;2023-06-22T00:23:39;7.07;;;6.47;;
77384;SDS011;66443;49.122;8.346;2023-06-22T00:26:04;5.85;;;5.45;;
77384;SDS011;66443;49.122;8.346;2023-06-22T00:28:29;6.22;;;5.72;;
77384;SDS011;66443;49.122;8.346;2023-06-22T00:30:55;6.68;;;5.95;;
77384;SDS011;66443;49.122;8.346;2023-06-22T00:33:20;7.35;;;6.65;;
77384;SDS011;66443;49.122;8.346;2023-06-22T00:35:46;7.90;;;7.17;;
77384;SDS011;66443;49.122;8.346;2023-06-22T00:38:11;17.10;;;10.50;;
77384;SDS011;66443;49.122;8.346;2023-06-22T00:40:36;19.65;;;9.95;;
77384;SDS011;66443;49.122;8.346;2023-06-22T00:43:02;13.13;;;9.73;;
77384;SDS011;66443;49.122;8.346;2023-06-22T00:45:27;13.10;;;9.70;;
77384;SDS011;66443;49.122;8.346;2023-06-22T00:47:53;12.03;;;9.93;;
77384;SDS011;66443;49.122;8.346;2023-06-22T00:50:20;11.00;;;10.00;;
77384;SDS011;66443;49.122;8.346;2023-06-22T00:52:46;10.90;;;9.97;;
77384;SDS011;66443;49.122;8.346;2023-06-22T00:55:12;11.07;;;10.07;;
77384;SDS011;66443;49.122;8.346;2023-06-22T00:57:37;10.73;;;9.80;;
77384;SDS011;66443;49.122;8.346;2023-06-22T01:00:02;10.70;;;9.77;;
77384;SDS011;66443;49.122;8.346;2023-06-22T01:02:31;11.73;;;10.30;;
77384;SDS011;66443;49.122;8.346;2023-06-22T01:04:56;12.40;;;10.53;;
77384;SDS011;66443;49.122;8.346;2023-06-22T01:07:39;11.63;;;10.63;;
77384;SDS011;66443;49.122;8.346;2023-06-22T01:12:32;12.17;;;10.97;;
77384;SDS011;66443;49.122;8.346;2023-06-22T01:15:10;10.40;;;9.50;;
77384;SDS011;66443;49.122;8.346;2023-06-22T01:17:36;10.47;;;9.67;;
77384;SDS011;66443;49.122;8.346;2023-06-22T01:20:02;9.27;;;8.33;;
77384;SDS011;66443;49.122;8.346;2023-06-22T01:22:30;10.30;;;9.23;;
77384;SDS011;66443;49.122;8.346;2023-06-22T01:25:09;9.30;;;8.33;;
77384;SDS011;66443;49.122;8.346;2023-06-22T01:30:19;8.97;;;8.17;;
77384;SDS011;66443;49.122;8.346;2023-06-22T01:32:45;9.07;;;8.37;;
77384;SDS011;66443;49.122;8.346;2023-06-22T01:35:11;7.80;;;7.30;;
77384;SDS011;66443;49.122;8.346;2023-06-22T01:37:37;8.27;;;7.50;;
77384;SDS011;66443;49.122;8.346;2023-06-22T01:40:04;8.47;;;7.80;;
77384;SDS011;66443;49.122;8.346;2023-06-22T01:42:30;10.00;;;9.20;;
77384;SDS011;66443;49.122;8.346;2023-06-22T01:44:56;9.10;;;8.40;;
77384;SDS011;66443;49.122;8.346;2023-06-22T01:47:21;8.60;;;7.90;;
77384;SDS011;66443;49.122;8.346;2023-06-22T01:49:47;8.93;;;8.13;;
77384;SDS011;66443;49.122;8.346;2023-06-22T01:52:12;9.53;;;8.67;;
77384;SDS011;66443;49.122;8.346;2023-06-22T01:54:39;9.70;;;8.80;;
77384;SDS011;66443;49.122;8.346;2023-06-22T01:57:04;9.20;;;8.30;;
77384;SDS011;66443;49.122;8.346;2023-06-22T01:59:32;9.70;;;8.60;;
77384;SDS011;66443;49.122;8.346;2023-06-22T02:02:01;10.20;;;9.07;;
77384;SDS011;66443;49.122;8.346;2023-06-22T02:04:27;9.97;;;8.93;;
77384;SDS011;66443;49.122;8.346;2023-06-22T02:06:58;9.87;;;8.97;;
77384;SDS011;66443;49.122;8.346;2023-06-22T02:09:24;9.93;;;8.93;;
77384;SDS011;66443;49.122;8.346;2023-06-22T02:11:51;10.27;;;8.80;;
77384;SDS011;66443;49.122;8.346;2023-06-22T02:14:19;9.93;;;9.00;;
77384;SDS011;66443;49.122;8.346;2023-06-22T02:16:45;10.30;;;9.50;;
77384;SDS011;66443;49.122;8.346;2023-06-22T02:19:10;9.70;;;8.80;;
77384;SDS011;66443;49.122;8.346;2023-06-22T02:21:36;9.57;;;8.77;;
77384;SDS011;66443;49.122;8.346;2023-06-22T02:24:01;10.90;;;9.80;;
77384;SDS011;66443;49.122;8.346;2023-06-22T02:26:26;9.80;;;9.00;;
77384;SDS011;66443;49.122;8.346;2023-06-22T02:28:52;15.33;;;10.20;;
77384;SDS011;66443;49.122;8.346;2023-06-22T02:31:17;13.13;;;9.87;;
77384;SDS011;66443;49.122;8.346;2023-06-22T02:33:43;10.93;;;9.93;;
77384;SDS011;66443;49.122;8.346;2023-06-22T02:36:08;9.63;;;8.93;;
77384;SDS011;66443;49.122;8.346;2023-06-22T02:38:34;10.60;;;9.53;;
77384;SDS011;66443;49.122;8.346;2023-06-22T02:40:59;10.03;;;9.23;;
77384;SDS011;66443;49.122;8.346;2023-06-22T02:43:25;10.43;;;9.53;;
77384;SDS011;66443;49.122;8.346;2023-06-22T02:45:50;11.63;;;9.23;;
77384;SDS011;66443;49.122;8.346;2023-06-22T02:48:15;11.20;;;10.13;;
77384;SDS011;66443;49.122;8.346;2023-06-22T02:50:40;13.00;;;9.33;;
77384;SDS011;66443;49.122;8.346;2023-06-22T02:53:05;14.33;;;9.23;;
77384;SDS011;66443;49.122;8.346;2023-06-22T02:55:30;11.40;;;10.27;;
77384;SDS011;66443;49.122;8.346;2023-06-22T02:57:56;10.20;;;9.30;;
77384;SDS011;66443;49.122;8.346;2023-06-22T03:00:22;11.03;;;10.13;;
77384;SDS011;66443;49.122;8.346;2023-06-22T03:02:48;10.63;;;9.53;;
77384;SDS011;66443;49.122;8.346;2023-06-22T03:05:14;10.63;;;9.73;;
77384;SDS011;66443;49.122;8.346;2023-06-22T03:07:40;11.53;;;10.63;;
77384;SDS011;66443;49.122;8.346;2023-06-22T03:10:07;13.47;;;10.70;;
77384;SDS011;66443;49.122;8.346;2023-06-22T03:12:32;12.23;;;11.10;;
77384;SDS011;66443;49.122;8.346;2023-06-22T03:14:57;12.97;;;11.70;;
77384;SDS011;66443;49.122;8.346;2023-06-22T03:17:23;12.87;;;11.53;;
77384;SDS011;66443;49.122;8.346;2023-06-22T03:19:48;13.40;;;12.13;;
77384;SDS011;66443;49.122;8.346;2023-06-22T03:22:13;13.67;;;12.37;;
77384;SDS011;66443;49.122;8.346;2023-06-22T03:24:40;12.27;;;11.20;;
77384;SDS011;66443;49.122;8.346;2023-06-22T03:27:05;13.07;;;11.97;;
77384;SDS011;66443;49.122;8.346;2023-06-22T03:29:30;13.17;;;11.93;;
77384;SDS011;66443;49.122;8.346;2023-06-22T03:31:56;13.13;;;11.93;;
77384;SDS011;66443;49.122;8.346;2023-06-22T03:34:21;13.27;;;12.07;;
77384;SDS011;66443;49.122;8.346;2023-06-22T03:36:47;13.03;;;11.93;;
77384;SDS011;66443;49.122;8.346;2023-06-22T03:39:12;13.37;;;12.17;;
77384;SDS011;66443;49.122;8.346;2023-06-22T03:41:38;13.20;;;11.93;;
77384;SDS011;66443;49.122;8.346;2023-06-22T03:44:03;13.33;;;12.17;;
77384;SDS011;66443;49.122;8.346;2023-06-22T03:46:29;14.20;;;12.40;;
77384;SDS011;66443;49.122;8.346;2023-06-22T03:48:54;12.63;;;11.63;;
77384;SDS011;66443;49.122;8.346;2023-06-22T03:51:19;12.47;;;11.33;;
77384;SDS011;66443;49.122;8.346;2023-06-22T03:53:44;12.67;;;10.77;;
77384;SDS011;66443;49.122;8.346;2023-06-22T03:56:09;12.73;;;11.50;;
77384;SDS011;66443;49.122;8.346;2023-06-22T03:58:34;11.87;;;10.87;;
77384;SDS011;66443;49.122;8.346;2023-06-22T04:01:01;11.00;;;10.00;;
77384;SDS011;66443;49.122;8.346;2023-06-22T04:03:26;12.00;;;10.93;;
77384;SDS011;66443;49.122;8.346;2023-06-22T04:05:51;13.93;;;11.37;;
77384;SDS011;66443;49.122;8.346;2023-06-22T04:08:17;12.27;;;11.17;;
77384;SDS011;66443;49.122;8.346;2023-06-22T04:10:42;11.00;;;10.07;;
77384;SDS011;66443;49.122;8.346;2023-06-22T04:13:08;10.77;;;9.67;;
77384;SDS011;66443;49.122;8.346;2023-06-22T04:15:33;10.20;;;9.30;;
77384;SDS011;66443;49.122;8.346;2023-06-22T04:17:58;10.40;;;9.40;;
77384;SDS011;66443;49.122;8.346;2023-06-22T04:20:24;10.47;;;9.47;;
77384;SDS011;66443;49.122;8.346;2023-06-22T04:22:55;10.47;;;9.67;;
77384;SDS011;66443;49.122;8.346;2023-06-22T04:25:20;13.53;;;9.83;;
77384;SDS011;66443;49.122;8.346;2023-06-22T04:27:45;11.43;;;10.23;;
77384;SDS011;66443;49.122;8.346;2023-06-22T04:30:11;10.80;;;10.07;;
77384;SDS011;66443;49.122;8.346;2023-06-22T04:32:37;10.83;;;9.73;;
77384;SDS011;66443;49.122;8.346;2023-06-22T04:35:03;11.13;;;9.27;;
77384;SDS011;66443;49.122;8.346;2023-06-22T04:37:29;9.50;;;8.70;;
77384;SDS011;66443;49.122;8.346;2023-06-22T04:39:55;8.73;;;7.93;;
77384;SDS011;66443;49.122;8.346;2023-06-22T04:42:20;9.63;;;8.73;;
77384;SDS011;66443;49.122;8.346;2023-06-22T04:44:45;9.23;;;8.17;;
77384;SDS011;66443;49.122;8.346;2023-06-22T04:47:10;9.93;;;9.03;;
77384;SDS011;66443;49.122;8.346;2023-06-22T04:49:36;9.00;;;8.40;;
77384;SDS011;66443;49.122;8.346;2023-06-22T04:52:05;12.13;;;9.57;;
77384;SDS011;66443;49.122;8.346;2023-06-22T04:54:31;10.13;;;9.23;;
77384;SDS011;66443;49.122;8.346;2023-06-22T04:57:02;10.17;;;9.30;;
77384;SDS011;66443;49.122;8.346;2023-06-22T04:59:28;9.33;;;8.47;;
77384;SDS011;66443;49.122;8.346;2023-06-22T05:01:58;10.40;;;8.63;;
77384;SDS011;66443;49.122;8.346;2023-06-22T05:04:25;9.20;;;8.17;;
77384;SDS011;66443;49.122;8.346;2023-06-22T05:06:51;8.77;;;7.97;;
77384;SDS011;66443;49.122;8.346;2023-06-22T05:09:16;12.60;;;8.70;;
77384;SDS011;66443;49.122;8.346;2023-06-22T05:11:42;9.73;;;9.00;;
77384;SDS011;66443;49.122;8.346;2023-06-22T05:14:07;9.67;;;8.87;;
77384;SDS011;66443;49.122;8.346;2023-06-22T05:16:32;8.87;;;7.97;;
77384;SDS011;66443;49.122;8.346;2023-06-22T05:18:58;9.07;;;8.37;;
77384;SDS011;66443;49.122;8.346;2023-06-22T05:21:23;9.93;;;9.10;;
77384;SDS011;66443;49.122;8.346;2023-06-22T05:23:49;10.40;;;9.43;;
77384;SDS011;66443;49.122;8.346;2023-06-22T05:26:14;8.87;;;8.17;;
77384;SDS011;66443;49.122;8.346;2023-06-22T05:28:40;9.43;;;8.63;;
77384;SDS011;66443;49.122;8.346;2023-06-22T05:31:05;8.57;;;7.97;;
77384;SDS011;66443;49.122;8.346;2023-06-22T05:33:30;9.37;;;8.33;;
77384;SDS011;66443;49.122;8.346;2023-06-22T05:35:55;11.73;;;8.60;;
77384;SDS011;66443;49.122;8.346;2023-06-22T05:38:21;8.40;;;7.70;;
77384;SDS011;66443;49.122;8.346;2023-06-22T05:40:46;9.47;;;8.53;;
77384;SDS011;66443;49.122;8.346;2023-06-22T05:43:11;9.25;;;8.30;;
77384;SDS011;66443;49.122;8.346;2023-06-22T05:45:36;9.53;;;8.73;;
77384;SDS011;66443;49.122;8.346;2023-06-22T05:48:01;10.35;;;8.10;;
77384;SDS011;66443;49.122;8.346;2023-06-22T05:50:26;9.25;;;8.45;;
77384;SDS011;66443;49.122;8.346;2023-06-22T05:52:51;11.63;;;8.53;;
77384;SDS011;66443;49.122;8.346;2023-06-22T05:55:17;10.53;;;8.40;;
77384;SDS011;66443;49.122;8.346;2023-06-22T05:57:43;8.45;;;7.75;;
77384;SDS011;66443;49.122;8.346;2023-06-22T06:00:08;8.70;;;8.00;;
77384;SDS011;66443;49.122;8.346;2023-06-22T06:02:36;9.53;;;8.63;;
77384;SDS011;66443;49.122;8.346;2023-06-22T06:05:01;17.48;;;8.55;;
77384;SDS011;66443;49.122;8.346;2023-06-22T06:07:28;8.77;;;8.07;;
77384;SDS011;66443;49.122;8.346;2023-06-22T06:09:53;9.40;;;8.47;;
77384;SDS011;66443;49.122;8.346;2023-06-22T06:12:18;8.93;;;7.97;;
77384;SDS011;66443;49.122;8.346;2023-06-22T06:14:43;8.93;;;8.13;;
77384;SDS011;66443;49.122;8.346;2023-06-22T06:17:09;8.77;;;7.88;;
77384;SDS011;66443;49.122;8.346;2023-06-22T06:19:34;9.67;;;8.67;;
77384;SDS011;66443;49.122;8.346;2023-06-22T06:21:59;9.00;;;8.15;;
77384;SDS011;66443;49.122;8.346;2023-06-22T06:24:25;9.55;;;8.65;;
77384;SDS011;66443;49.122;8.346;2023-06-22T06:26:50;9.05;;;8.35;;
77384;SDS011;66443;49.122;8.346;2023-06-22T06:29:15;8.93;;;7.90;;
77384;SDS011;66443;49.122;8.346;2023-06-22T06:31:41;9.70;;;8.55;;
77384;SDS011;66443;49.122;8.346;2023-06-22T06:34:06;9.02;;;8.40;;
77384;SDS011;66443;49.122;8.346;2023-06-22T06:36:31;10.18;;;8.48;;
77384;SDS011;66443;49.122;8.346;2023-06-22T06:38:57;10.95;;;8.90;;
77384;SDS011;66443;49.122;8.346;2023-06-22T06:41:22;13.23;;;8.32;;
77384;SDS011;66443;49.122;8.346;2023-06-22T06:43:48;8.15;;;7.45;;
77384;SDS011;66443;49.122;8.346;2023-06-22T06:46:13;10.55;;;7.47;;
77384;SDS011;66443;49.122;8.346;2023-06-22T06:48:38;10.43;;;7.88;;
77384;SDS011;66443;49.122;8.346;2023-06-22T06:51:04;10.15;;;8.68;;
77384;SDS011;66443;49.122;8.346;2023-06-22T06:53:29;9.13;;;8.27;;
77384;SDS011;66443;49.122;8.346;2023-06-22T06:55:55;8.98;;;8.15;;
77384;SDS011;66443;49.122;8.346;2023-06-22T06:58:20;10.45;;;9.45;;
77384;SDS011;66443;49.122;8.346;2023-06-22T07:00:45;9.45;;;8.52;;
77384;SDS011;66443;49.122;8.346;2023-06-22T07:03:10;8.90;;;8.20;;
77384;SDS011;66443;49.122;8.346;2023-06-22T07:05:35;9.23;;;8.45;;
77384;SDS011;66443;49.122;8.346;2023-06-22T07:08:01;9.02;;;8.23;;
77384;SDS011;66443;49.122;8.346;2023-06-22T07:10:26;9.57;;;8.70;;
77384;SDS011;66443;49.122;8.346;2023-06-22T07:12:51;9.57;;;8.57;;
77384;SDS011;66443;49.122;8.346;2023-06-22T07:15:20;9.95;;;8.40;;
77384;SDS011;66443;49.122;8.346;2023-06-22T07:17:45;8.90;;;8.13;;
77384;SDS011;66443;49.122;8.346;2023-06-22T07:20:10;9.10;;;8.30;;
77384;SDS011;66443;49.122;8.346;2023-06-22T07:22:40;9.38;;;8.68;;
77384;SDS011;66443;49.122;8.346;2023-06-22T07:25:06;8.13;;;7.63;;
77384;SDS011;66443;49.122;8.346;2023-06-22T07:27:37;9.18;;;8.27;;
77384;SDS011;66443;49.122;8.346;2023-06-22T07:30:03;9.35;;;8.32;;
77384;SDS011;66443;49.122;8.346;2023-06-22T07:32:28;9.50;;;8.70;;
77384;SDS011;66443;49.122;8.346;2023-06-22T07:34:54;8.82;;;7.97;;
77384;SDS011;66443;49.122;8.346;2023-06-22T07:37:19;8.98;;;8.13;;
77384;SDS011;66443;49.122;8.346;2023-06-22T07:39:44;8.55;;;7.40;;
77384;SDS011;66443;49.122;8.346;2023-06-22T07:42:09;9.65;;;8.25;;
77384;SDS011;66443;49.122;8.346;2023-06-22T07:44:35;8.50;;;7.90;;
77384;SDS011;66443;49.122;8.346;2023-06-22T07:47:00;9.57;;;8.68;;
77384;SDS011;66443;49.122;8.346;2023-06-22T07:49:25;11.23;;;9.70;;
77384;SDS011;66443;49.122;8.346;2023-06-22T07:51:50;10.50;;;8.15;;
77384;SDS011;66443;49.122;8.346;2023-06-22T07:54:15;8.53;;;7.70;;
77384;SDS011;66443;49.122;8.346;2023-06-22T07:56:42;10.00;;;8.20;;
77384;SDS011;66443;49.122;8.346;2023-06-22T07:59:08;8.57;;;7.78;;
77384;SDS011;66443;49.122;8.346;2023-06-22T08:01:33;8.97;;;8.17;;
77384;SDS011;66443;49.122;8.346;2023-06-22T08:03:58;8.85;;;8.05;;
77384;SDS011;66443;49.122;8.346;2023-06-22T08:06:23;8.10;;;7.43;;
77384;SDS011;66443;49.122;8.346;2023-06-22T08:08:48;8.05;;;7.45;;
77384;SDS011;66443;49.122;8.346;2023-06-22T08:11:14;7.88;;;7.30;;
77384;SDS011;66443;49.122;8.346;2023-06-22T08:13:39;7.78;;;7.13;;
77384;SDS011;66443;49.122;8.346;2023-06-22T08:16:04;7.57;;;7.07;;
77384;SDS011;66443;49.122;8.346;2023-06-22T08:18:29;7.80;;;7.15;;
77384;SDS011;66443;49.122;8.346;2023-06-22T08:20:55;7.90;;;7.22;;
77384;SDS011;66443;49.122;8.346;2023-06-22T08:23:20;7.60;;;7.10;;
77384;SDS011;66443;49.122;8.346;2023-06-22T08:25:45;8.60;;;7.80;;
77384;SDS011;66443;49.122;8.346;2023-06-22T08:28:10;9.85;;;7.25;;
77384;SDS011;66443;49.122;8.346;2023-06-22T08:30:35;8.07;;;7.35;;
77384;SDS011;66443;49.122;8.346;2023-06-22T08:33:01;8.80;;;7.35;;
77384;SDS011;66443;49.122;8.346;2023-06-22T08:35:26;7.17;;;6.63;;
77384;SDS011;66443;49.122;8.346;2023-06-22T08:37:51;7.65;;;6.95;;
77384;SDS011;66443;49.122;8.346;2023-06-22T08:40:21;9.55;;;6.63;;
77384;SDS011;66443;49.122;8.346;2023-06-22T08:42:47;7.03;;;6.53;;
77384;SDS011;66443;49.122;8.346;2023-06-22T08:45:13;9.25;;;7.50;;
77384;SDS011;66443;49.122;8.346;2023-06-22T08:47:39;8.27;;;7.68;;
77384;SDS011;66443;49.122;8.346;2023-06-22T08:50:04;7.00;;;6.15;;
77384;SDS011;66443;49.122;8.346;2023-06-22T08:52:30;7.20;;;6.60;;
77384;SDS011;66443;49.122;8.346;2023-06-22T08:54:56;7.05;;;6.55;;
77384;SDS011;66443;49.122;8.346;2023-06-22T08:57:21;8.50;;;6.55;;
77384;SDS011;66443;49.122;8.346;2023-06-22T08:59:46;7.03;;;6.43;;
77384;SDS011;66443;49.122;8.346;2023-06-22T09:02:11;7.37;;;6.87;;
77384;SDS011;66443;49.122;8.346;2023-06-22T09:04:36;7.03;;;6.03;;
77384;SDS011;66443;49.122;8.346;2023-06-22T09:07:02;7.18;;;6.57;;
77384;SDS011;66443;49.122;8.346;2023-06-22T09:09:27;7.35;;;6.60;;
77384;SDS011;66443;49.122;8.346;2023-06-22T09:11:52;7.97;;;7.22;;
77384;SDS011;66443;49.122;8.346;2023-06-22T09:14:17;7.70;;;7.10;;
77384;SDS011;66443;49.122;8.346;2023-06-22T09:16:43;7.37;;;6.87;;
77384;SDS011;66443;49.122;8.346;2023-06-22T09:19:08;6.28;;;5.80;;
77384;SDS011;66443;49.122;8.346;2023-06-22T09:21:33;7.88;;;6.60;;
77384;SDS011;66443;49.122;8.346;2023-06-22T09:23:58;7.80;;;7.10;;
77384;SDS011;66443;49.122;8.346;2023-06-22T09:26:23;7.10;;;6.50;;
77384;SDS011;66443;49.122;8.346;2023-06-22T09:28:49;6.63;;;6.10;;
77384;SDS011;66443;49.122;8.346;2023-06-22T09:31:14;7.55;;;6.95;;
77384;SDS011;66443;49.122;8.346;2023-06-22T09:33:41;7.45;;;6.85;;
77384;SDS011;66443;49.122;8.346;2023-06-22T09:36:07;6.53;;;5.93;;
77384;SDS011;66443;49.122;8.346;2023-06-22T09:38:35;6.82;;;6.18;;
77384;SDS011;66443;49.122;8.346;2023-06-22T09:41:00;9.32;;;6.80;;
77384;SDS011;66443;49.122;8.346;2023-06-22T09:43:26;7.20;;;6.60;;
77384;SDS011;66443;49.122;8.346;2023-06-22T09:45:51;6.97;;;6.50;;
77384;SDS011;66443;49.122;8.346;2023-06-22T09:48:17;6.78;;;6.13;;
77384;SDS011;66443;49.122;8.346;2023-06-22T09:50:42;6.90;;;6.28;;
77384;SDS011;66443;49.122;8.346;2023-06-22T09:53:07;6.90;;;6.30;;
77384;SDS011;66443;49.122;8.346;2023-06-22T09:55:32;7.23;;;6.73;;
77384;SDS011;66443;49.122;8.346;2023-06-22T09:57:58;6.87;;;6.17;;
77384;SDS011;66443;49.122;8.346;2023-06-22T10:00:23;7.15;;;6.30;;
77384;SDS011;66443;49.122;8.346;2023-06-22T10:02:48;6.38;;;5.78;;
77384;SDS011;66443;49.122;8.346;2023-06-22T10:05:14;6.25;;;5.80;;
77384;SDS011;66443;49.122;8.346;2023-06-22T10:07:39;6.70;;;6.13;;
77384;SDS011;66443;49.122;8.346;2023-06-22T10:10:07;7.95;;;7.25;;
77384;SDS011;66443;49.122;8.346;2023-06-22T10:12:32;5.72;;;5.25;;
77384;SDS011;66443;49.122;8.346;2023-06-22T10:14:57;6.87;;;6.07;;
77384;SDS011;66443;49.122;8.346;2023-06-22T10:17:23;6.00;;;5.30;;
77384;SDS011;66443;49.122;8.346;2023-06-22T10:19:48;8.32;;;5.88;;
77384;SDS011;66443;49.122;8.346;2023-06-22T10:22:13;5.97;;;5.50;;
77384;SDS011;66443;49.122;8.346;2023-06-22T10:24:38;6.70;;;6.20;;
77384;SDS011;66443;49.122;8.346;2023-06-22T10:27:09;6.22;;;5.72;;
77384;SDS011;66443;49.122;8.346;2023-06-22T10:29:34;5.93;;;5.43;;
77384;SDS011;66443;49.122;8.346;2023-06-22T10:31:59;6.40;;;5.80;;
77384;SDS011;66443;49.122;8.346;2023-06-22T10:34:24;7.00;;;5.60;;
77384;SDS011;66443;49.122;8.346;2023-06-22T10:36:49;7.05;;;5.68;;
77384;SDS011;66443;49.122;8.346;2023-06-22T10:39:15;7.05;;;5.32;;
77384;SDS011;66443;49.122;8.346;2023-06-22T10:41:40;7.28;;;6.35;;
77384;SDS011;66443;49.122;8.346;2023-06-22T10:44:05;6.03;;;5.37;;
77384;SDS011;66443;49.122;8.346;2023-06-22T10:46:30;6.18;;;5.57;;
77384;SDS011;66443;49.122;8.346;2023-06-22T10:48:56;7.20;;;6.60;;
77384;SDS011;66443;49.122;8.346;2023-06-22T10:51:23;6.57;;;5.53;;
77384;SDS011;66443;49.122;8.346;2023-06-22T10:53:48;6.87;;;5.40;;
77384;SDS011;66443;49.122;8.346;2023-06-22T10:56:14;5.45;;;4.93;;
77384;SDS011;66443;49.122;8.346;2023-06-22T10:58:39;5.70;;;5.20;;
77384;SDS011;66443;49.122;8.346;2023-06-22T11:01:04;6.05;;;5.45;;
77384;SDS011;66443;49.122;8.346;2023-06-22T11:03:29;7.80;;;5.93;;
77384;SDS011;66443;49.122;8.346;2023-06-22T11:05:54;5.72;;;5.13;;
77384;SDS011;66443;49.122;8.346;2023-06-22T11:08:20;9.77;;;5.27;;
77384;SDS011;66443;49.122;8.346;2023-06-22T11:10:45;5.70;;;5.20;;
77384;SDS011;66443;49.122;8.346;2023-06-22T11:13:10;6.93;;;5.78;;
77384;SDS011;66443;49.122;8.346;2023-06-22T11:15:36;5.47;;;4.97;;
77384;SDS011;66443;49.122;8.346;2023-06-22T11:18:01;9.23;;;5.10;;
77384;SDS011;66443;49.122;8.346;2023-06-22T11:20:26;6.53;;;5.37;;
77384;SDS011;66443;49.122;8.346;2023-06-22T11:22:51;8.75;;;5.10;;
77384;SDS011;66443;49.122;8.346;2023-06-22T11:25:16;8.77;;;5.67;;
77384;SDS011;66443;49.122;8.346;2023-06-22T11:27:42;6.33;;;5.20;;
77384;SDS011;66443;49.122;8.346;2023-06-22T11:30:07;5.60;;;5.20;;
77384;SDS011;66443;49.122;8.346;2023-06-22T11:32:33;6.93;;;5.60;;
77384;SDS011;66443;49.122;8.346;2023-06-22T11:34:58;5.63;;;5.05;;
77384;SDS011;66443;49.122;8.346;2023-06-22T11:37:23;7.30;;;5.37;;
77384;SDS011;66443;49.122;8.346;2023-06-22T11:39:48;6.83;;;5.23;;
77384;SDS011;66443;49.122;8.346;2023-06-22T11:42:14;13.05;;;6.15;;
77384;SDS011;66443;49.122;8.346;2023-06-22T11:44:39;8.50;;;5.90;;
77384;SDS011;66443;49.122;8.346;2023-06-22T11:47:04;6.82;;;5.32;;
77384;SDS011;66443;49.122;8.346;2023-06-22T11:49:30;6.07;;;5.28;;
77384;SDS011;66443;49.122;8.346;2023-06-22T11:51:55;6.15;;;5.65;;
77384;SDS011;66443;49.122;8.346;2023-06-22T11:54:21;5.77;;;5.27;;
77384;SDS011;66443;49.122;8.346;2023-06-22T11:56:46;8.25;;;5.40;;
77384;SDS011;66443;49.122;8.346;2023-06-22T11:59:11;5.80;;;5.30;;
77384;SDS011;66443;49.122;8.346;2023-06-22T12:01:36;5.17;;;4.77;;
77384;SDS011;66443;49.122;8.346;2023-06-22T12:04:02;6.53;;;5.93;;
77384;SDS011;66443;49.122;8.346;2023-06-22T12:06:30;5.53;;;5.13;;
77384;SDS011;66443;49.122;8.346;2023-06-22T12:08:55;7.93;;;5.38;;
77384;SDS011;66443;49.122;8.346;2023-06-22T12:11:20;5.90;;;4.83;;
77384;SDS011;66443;49.122;8.346;2023-06-22T12:13:45;6.13;;;5.10;;
77384;SDS011;66443;49.122;8.346;2023-06-22T12:16:11;5.00;;;4.53;;
77384;SDS011;66443;49.122;8.346;2023-06-22T12:18:37;9.40;;;5.43;;
77384;SDS011;66443;49.122;8.346;2023-06-22T12:21:02;5.60;;;5.13;;
77384;SDS011;66443;49.122;8.346;2023-06-22T12:23:27;7.38;;;5.53;;
77384;SDS011;66443;49.122;8.346;2023-06-22T12:25:52;6.30;;;5.10;;
77384;SDS011;66443;49.122;8.346;2023-06-22T12:28:17;6.33;;;5.70;;
77384;SDS011;66443;49.122;8.346;2023-06-22T12:30:43;6.13;;;5.60;;
77384;SDS011;66443;49.122;8.346;2023-06-22T12:33:08;5.70;;;5.20;;
77384;SDS011;66443;49.122;8.346;2023-06-22T12:35:34;7.72;;;5.90;;
77384;SDS011;66443;49.122;8.346;2023-06-22T12:37:59;5.88;;;5.35;;
77384;SDS011;66443;49.122;8.346;2023-06-22T12:40:24;6.88;;;5.40;;
77384;SDS011;66443;49.122;8.346;2023-06-22T12:42:49;6.45;;;5.80;;
77384;SDS011;66443;49.122;8.346;2023-06-22T12:45:15;6.75;;;5.40;;
77384;SDS011;66443;49.122;8.346;2023-06-22T12:47:40;5.55;;;5.03;;
77384;SDS011;66443;49.122;8.346;2023-06-22T12:50:05;7.43;;;5.20;;
77384;SDS011;66443;49.122;8.346;2023-06-22T12:52:31;8.10;;;5.20;;
77384;SDS011;66443;49.122;8.346;2023-06-22T12:54:57;9.85;;;6.43;;
77384;SDS011;66443;49.122;8.346;2023-06-22T12:57:22;6.03;;;5.53;;
77384;SDS011;66443;49.122;8.346;2023-06-22T12:59:48;7.85;;;6.20;;
77384;SDS011;66443;49.122;8.346;2023-06-22T13:02:13;6.00;;;5.50;;
77384;SDS011;66443;49.122;8.346;2023-06-22T13:04:39;6.50;;;5.90;;
77384;SDS011;66443;49.122;8.346;2023-06-22T13:07:04;7.68;;;6.93;;
77384;SDS011;66443;49.122;8.346;2023-06-22T13:09:29;6.47;;;5.72;;
77384;SDS011;66443;49.122;8.346;2023-06-22T13:11:55;7.05;;;6.40;;
77384;SDS011;66443;49.122;8.346;2023-06-22T13:14:20;6.10;;;5.53;;
77384;SDS011;66443;49.122;8.346;2023-06-22T13:16:45;6.57;;;6.07;;
77384;SDS011;66443;49.122;8.346;2023-06-22T13:19:10;6.77;;;6.23;;
77384;SDS011;66443;49.122;8.346;2023-06-22T13:21:35;7.07;;;6.57;;
77384;SDS011;66443;49.122;8.346;2023-06-22T13:24:01;6.93;;;5.90;;
77384;SDS011;66443;49.122;8.346;2023-06-22T13:26:26;5.95;;;5.45;;
77384;SDS011;66443;49.122;8.346;2023-06-22T13:28:53;6.50;;;5.50;;
77384;SDS011;66443;49.122;8.346;2023-06-22T13:31:18;6.43;;;5.83;;
77384;SDS011;66443;49.122;8.346;2023-06-22T13:33:43;6.17;;;5.67;;
77384;SDS011;66443;49.122;8.346;2023-06-22T13:36:11;8.23;;;5.68;;
77384;SDS011;66443;49.122;8.346;2023-06-22T13:38:36;8.70;;;6.17;;
77384;SDS011;66443;49.122;8.346;2023-06-22T13:41:03;7.63;;;6.10;;
77384;SDS011;66443;49.122;8.346;2023-06-22T13:43:29;7.22;;;5.55;;
77384;SDS011;66443;49.122;8.346;2023-06-22T13:45:54;9.20;;;5.50;;
77384;SDS011;66443;49.122;8.346;2023-06-22T13:48:19;7.03;;;5.90;;
77384;SDS011;66443;49.122;8.346;2023-06-22T13:50:44;8.07;;;6.30;;
77384;SDS011;66443;49.122;8.346;2023-06-22T13:53:09;10.50;;;5.93;;
77384;SDS011;66443;49.122;8.346;2023-06-22T13:55:35;8.65;;;5.13;;
77384;SDS011;66443;49.122;8.346;2023-06-22T13:58:00;5.40;;;4.90;;
77384;SDS011;66443;49.122;8.346;2023-06-22T14:00:25;6.47;;;5.87;;
77384;SDS011;66443;49.122;8.346;2023-06-22T14:02:50;6.85;;;5.78;;
77384;SDS011;66443;49.122;8.346;2023-06-22T14:05:16;8.85;;;5.78;;
77384;SDS011;66443;49.122;8.346;2023-06-22T14:07:41;7.37;;;6.03;;
77384;SDS011;66443;49.122;8.346;2023-06-22T14:10:06;5.95;;;5.35;;
77384;SDS011;66443;49.122;8.346;2023-06-22T14:12:32;10.48;;;5.90;;
77384;SDS011;66443;49.122;8.346;2023-06-22T14:14:57;11.73;;;6.13;;
77384;SDS011;66443;49.122;8.346;2023-06-22T14:17:22;7.50;;;6.40;;
77384;SDS011;66443;49.122;8.346;2023-06-22T14:19:50;9.88;;;6.10;;
77384;SDS011;66443;49.122;8.346;2023-06-22T14:22:17;8.68;;;6.13;;
77384;SDS011;66443;49.122;8.346;2023-06-22T14:24:42;7.05;;;6.18;;
77384;SDS011;66443;49.122;8.346;2023-06-22T14:27:07;9.17;;;5.83;;
77384;SDS011;66443;49.122;8.346;2023-06-22T14:29:34;11.57;;;7.25;;
77384;SDS011;66443;49.122;8.346;2023-06-22T14:31:59;17.52;;;8.52;;
77384;SDS011;66443;49.122;8.346;2023-06-22T14:34:24;12.13;;;8.38;;
77384;SDS011;66443;49.122;8.346;2023-06-22T14:36:49;14.50;;;8.20;;
77384;SDS011;66443;49.122;8.346;2023-06-22T14:39:15;14.95;;;9.40;;